KPDK

DeKalb-Peachtree

Airport
ICAO code
KPDK
Summary
ICAO Region
NAM
ICAO Territory
Location

Chamblee, Georgia,

Coordinates
33° 52' 32" N , 84° 18' 7" W
KCC
Cfa
Airport LOS
Parallel Runway Operation
Metar
Observation
KPDK 171400Z 07003KT 1 3/4SM RA BR BKN007 BKN024 OVC028 21/19 A3003 RMK AO2 P0002 T02060194
Station
Atlanta, De Kalb-Peachtree Airport
Date/Time
2022-08-17 14:00:00
Wind direction
70°
Wind speed
03 kts
Lowest cloud amount
broken clouds
Temperature
20.6°C
Dew point
19.4°C
Humidity
92%
Weather condition

Description

DeKalb-Peachtree Airport is a municipal general aviation airport located in Chamblee, Georgia, just northeast of Atlanta.

Climatology

Humid “subtropical” climate (Köppen climate classification Cfa) - characterized by hot, humid summers and cool winters. Significant amounts of precipitation occur in all seasons in most areas. Winter rainfall (and sometimes snowfall) is associated with large storms that the westerlies steer from west to east. Most summer rainfall occurs during thunderstorms and occasional tropical storms (hurricanes).

Runways

Designator Length Width Surface Rops
9/27 1031 46 ASP Yes/Yes
02L/20R 1142 46 ASP Yes/Yes
16/34 1209 46 ASP Yes/Yes
02R/20L 1829 30 CON Yes/Yes

Airport map

Aerial View

SKYbrary Partners:

Safety knowledge contributed by: